Presho, South Dakota
Current Conditions -  °F | °C
As of 7:53 PM on Tuesday 25 Nov 2014 (Local Time) from KPIR Reporting Station
Overcast Overcast  
Wind Chill: 27°   Ceiling: 5000
Heat Index: 35°   Visibility: 10mi
Dew Point: 33°   Wind: 12mph
Humidity: 92%   Direction: 290°WNW
Pressure: 29.79"   Gusts: NA
Location:  43.91°N, 100.06°W
Report Text: KPIR 260153Z AUTO 29010KT 10SM OVC050 02/01 A2979 RMK AO2 SLP104 T00170006
Loading
Personal Weather Stations






























Interactive Weather Map New forecast layout! Learn more

10-Day Weather Forecast

Advertisements
Track Severe Weather on mobile